Time;durP1;ratioP1;P1;durP2;ratioP2;P2;SDS_P1;SDS_P2;PMS_P1;PMS_P2;Temp;Humidity;BMP_temperature;BMP_pressure;BME280_temperature;BME280_humidity;BME280_pressure;Samples;Min_cycle;Max_cycle;Signal;HPM_P1;HPM_P2
2023/02/23 00:00:31;;;;;;;45.75;40.65;;;12.10;99.90;;;;;;2044552;28;20081;-73
2023/02/23 00:01:32;;;;;;;44.63;39.33;;;12.10;99.90;;;;;;2045344;28;20115;-73
2023/02/23 00:02:32;;;;;;;45.95;38.58;;;12.10;99.90;;;;;;2045931;28;20463;-73
2023/02/23 00:03:33;;;;;;;42.65;37.30;;;12.10;99.90;;;;;;2044549;29;20502;-73
2023/02/23 00:04:34;;;;;;;44.45;39.58;;;12.10;99.90;;;;;;2043088;28;20027;-73
2023/02/23 00:05:36;;;;;;;44.63;39.63;;;12.10;99.90;;;;;;2035780;29;20040;-73
2023/02/23 00:06:37;;;;;;;44.53;39.70;;;12.10;99.90;;;;;;2028467;29;21027;-73
2023/02/23 00:07:37;;;;;;;48.80;39.85;;;12.10;99.90;;;;;;2027530;29;20495;-73
2023/02/23 00:08:39;;;;;;;47.97;41.67;;;12.10;99.90;;;;;;2038327;29;20375;-73
2023/02/23 00:09:39;;;;;;;50.58;41.83;;;12.10;99.90;;;;;;2043982;28;20031;-73
2023/02/23 00:10:40;;;;;;;41.63;37.30;;;12.10;99.90;;;;;;2045606;28;20411;-73
2023/02/23 00:11:40;;;;;;;36.22;32.35;;;12.10;99.90;;;;;;2043580;28;20023;-73
2023/02/23 00:12:41;;;;;;;40.63;36.33;;;12.10;99.90;;;;;;2044768;28;20026;-73
2023/02/23 00:13:48;;;;;;;44.20;38.85;;;12.10;99.90;;;;;;2044557;28;20044;-74
2023/02/23 00:14:49;;;;;;;44.00;39.15;;;12.10;99.90;;;;;;2044754;28;20023;-73
2023/02/23 00:15:49;;;;;;;46.78;41.67;;;12.10;99.90;;;;;;2044496;28;20495;-73
2023/02/23 00:16:50;;;;;;;46.33;41.20;;;12.10;99.90;;;;;;2045024;28;20501;-74
2023/02/23 00:17:51;;;;;;;45.05;40.25;;;12.10;99.90;;;;;;2044603;29;20495;-73
2023/02/23 00:18:55;;;;;;;46.85;41.17;;;12.10;99.90;;;;;;2043761;28;20613;-73
2023/02/23 00:19:56;;;;;;;51.97;41.65;;;12.00;99.90;;;;;;2034366;29;20571;-74
2023/02/23 00:20:57;;;;;;;46.45;41.45;;;12.00;99.90;;;;;;2036845;29;20131;-73
2023/02/23 00:21:57;;;;;;;46.50;40.20;;;12.10;99.90;;;;;;2044460;28;20078;-73
2023/02/23 00:22:58;;;;;;;43.20;35.90;;;12.00;99.90;;;;;;2044838;28;20050;-73
2023/02/23 00:24:01;;;;;;;42.67;38.03;;;12.00;99.90;;;;;;2036158;29;20098;-73
2023/02/23 00:25:07;;;;;;;43.60;38.92;;;12.10;99.90;;;;;;2029745;29;20040;-74
2023/02/23 00:26:08;;;;;;;49.22;41.85;;;12.00;99.90;;;;;;2037814;29;20412;-73
2023/02/23 00:27:09;;;;;;;36.17;30.92;;;12.00;99.90;;;;;;2044925;28;20085;-73
2023/02/23 00:28:09;;;;;;;40.25;35.33;;;12.10;99.90;;;;;;2044831;28;20491;-73
2023/02/23 00:29:16;;;;;;;49.63;42.30;;;12.10;99.90;;;;;;2033680;29;20526;-73
2023/02/23 00:30:18;;;;;;;40.35;34.67;;;12.10;99.90;;;;;;2036267;29;20400;-73
2023/02/23 00:31:24;;;;;;;38.78;32.92;;;12.10;99.90;;;;;;2043515;28;20038;-73
2023/02/23 00:32:25;;;;;;;45.78;40.05;;;12.10;99.90;;;;;;2043611;28;20032;-73
2023/02/23 00:33:25;;;;;;;48.25;41.63;;;12.10;99.90;;;;;;2045099;29;20557;-73
2023/02/23 00:34:26;;;;;;;39.97;35.22;;;12.10;99.90;;;;;;2043384;28;20033;-73
2023/02/23 00:35:27;;;;;;;49.40;42.20;;;12.10;99.90;;;;;;2044583;28;20051;-73
2023/02/23 00:36:33;;;;;;;36.40;32.22;;;12.10;99.90;;;;;;2044619;28;20028;-73
2023/02/23 00:37:33;;;;;;;43.50;38.85;;;12.10;99.90;;;;;;2043125;28;20039;-73
2023/02/23 00:38:35;;;;;;;48.83;40.45;;;12.10;99.90;;;;;;2040576;29;20738;-73
2023/02/23 00:39:35;;;;;;;53.53;44.47;;;12.10;99.90;;;;;;2041404;29;20376;-73
2023/02/23 00:40:39;;;;;;;45.58;39.08;;;12.10;99.90;;;;;;2044067;28;20031;-73
2023/02/23 00:41:41;;;;;;;48.25;43.15;;;12.10;99.90;;;;;;2044794;28;20020;-73
2023/02/23 00:42:45;;;;;;;54.42;43.50;;;12.10;99.90;;;;;;2045087;28;20098;-73
2023/02/23 00:43:48;;;;;;;47.00;38.75;;;12.10;99.90;;;;;;2044872;28;20113;-73
2023/02/23 00:44:49;;;;;;;49.00;43.33;;;12.10;99.90;;;;;;2045001;28;20027;-73
2023/02/23 00:45:54;;;;;;;49.03;43.72;;;12.10;99.90;;;;;;2044605;28;20027;-73
2023/02/23 00:46:54;;;;;;;52.65;44.92;;;12.10;99.90;;;;;;2045686;28;20603;-73
2023/02/23 00:47:55;;;;;;;51.72;44.47;;;12.10;99.90;;;;;;2037205;29;20455;-73
2023/02/23 00:48:57;;;;;;;59.22;46.10;;;12.10;99.90;;;;;;2036823;29;20027;-73
2023/02/23 00:49:58;;;;;;;51.55;45.97;;;12.10;99.90;;;;;;2045279;28;20031;-73
2023/02/23 00:51:00;;;;;;;59.35;48.15;;;12.10;99.90;;;;;;2044941;28;20034;-73
2023/02/23 00:52:00;;;;;;;46.72;40.30;;;12.00;99.90;;;;;;2045004;28;20807;-73
2023/02/23 00:53:01;;;;;;;53.50;44.67;;;12.10;99.90;;;;;;2046268;28;20357;-73
2023/02/23 00:54:02;;;;;;;49.17;42.60;;;12.10;99.90;;;;;;2044824;28;20035;-73
2023/02/23 00:55:05;;;;;;;57.45;47.90;;;12.10;99.90;;;;;;2045430;28;20054;-73
2023/02/23 00:56:07;;;;;;;51.95;45.95;;;12.10;99.90;;;;;;2044399;28;20036;-73
2023/02/23 00:57:07;;;;;;;53.97;46.05;;;12.00;99.90;;;;;;2044411;28;20073;-73
2023/02/23 00:58:08;;;;;;;52.67;43.80;;;12.10;99.90;;;;;;2044744;28;20027;-73
2023/02/23 00:59:09;;;;;;;58.47;47.33;;;12.00;99.90;;;;;;2044131;28;20031;-73
2023/02/23 01:00:17;;;;;;;53.92;46.47;;;12.10;99.90;;;;;;2042117;28;20046;-73
2023/02/23 01:01:18;;;;;;;58.08;47.33;;;12.10;99.90;;;;;;2044095;29;20055;-73
2023/02/23 01:02:19;;;;;;;56.58;47.03;;;12.10;99.90;;;;;;2041430;28;20024;-73
2023/02/23 01:03:19;;;;;;;39.38;33.53;;;12.10;99.90;;;;;;2043700;28;20050;-73
2023/02/23 01:04:21;;;;;;;50.83;42.58;;;12.10;99.90;;;;;;2043794;28;20380;-73
2023/02/23 01:05:22;;;;;;;51.78;45.95;;;12.10;99.90;;;;;;2035204;29;20395;-73
2023/02/23 01:06:23;;;;;;;55.55;46.97;;;12.10;99.90;;;;;;2035965;29;20107;-73
2023/02/23 01:07:24;;;;;;;53.47;43.72;;;12.10;99.90;;;;;;2044329;29;20043;-73
2023/02/23 01:08:26;;;;;;;47.75;41.25;;;12.10;99.90;;;;;;2044791;28;20023;-74
2023/02/23 01:09:27;;;;;;;49.75;41.97;;;12.10;99.90;;;;;;2045926;28;20107;-73
2023/02/23 01:10:27;;;;;;;53.55;45.67;;;12.10;99.90;;;;;;2043104;28;20031;-73
2023/02/23 01:11:29;;;;;;;60.85;48.38;;;12.10;99.90;;;;;;2043437;28;20031;-73
2023/02/23 01:12:30;;;;;;;54.08;46.35;;;12.10;99.90;;;;;;2044039;28;20657;-73
2023/02/23 01:13:30;;;;;;;49.00;43.28;;;12.10;99.90;;;;;;2043130;28;20399;-73
2023/02/23 01:14:31;;;;;;;56.50;47.83;;;12.10;99.90;;;;;;2044482;28;20058;-73
2023/02/23 01:15:32;;;;;;;54.42;46.90;;;12.10;99.90;;;;;;2043595;28;20027;-73
2023/02/23 01:16:33;;;;;;;57.60;48.97;;;12.10;99.90;;;;;;2042660;28;20066;-73
2023/02/23 01:17:34;;;;;;;50.13;41.30;;;12.10;99.90;;;;;;2036504;29;20516;-73
2023/02/23 01:18:36;;;;;;;50.55;42.58;;;12.10;99.90;;;;;;2036323;29;20070;-73
2023/02/23 01:19:36;;;;;;;53.25;42.65;;;12.10;99.90;;;;;;2043137;28;20023;-73
2023/02/23 01:20:40;;;;;;;48.53;40.55;;;12.10;99.90;;;;;;2043271;28;20130;-73
2023/02/23 01:21:41;;;;;;;55.00;47.47;;;12.10;99.90;;;;;;2045904;28;20025;-73
2023/02/23 01:22:46;;;;;;;57.17;45.22;;;12.10;99.90;;;;;;2043924;28;20033;-73
2023/02/23 01:23:47;;;;;;;53.53;46.60;;;12.10;99.90;;;;;;2035628;29;21742;-73
2023/02/23 01:24:48;;;;;;;53.88;45.28;;;12.10;99.90;;;;;;2032556;29;20032;-73
2023/02/23 01:25:48;;;;;;;57.70;47.90;;;12.10;99.90;;;;;;2044085;28;20495;-73
2023/02/23 01:26:49;;;;;;;55.25;46.58;;;12.10;99.90;;;;;;2043169;28;20480;-73
2023/02/23 01:27:49;;;;;;;55.83;47.65;;;12.10;99.90;;;;;;2043348;28;20399;-73
2023/02/23 01:28:53;;;;;;;57.58;48.95;;;12.10;99.90;;;;;;2043590;28;20038;-73
2023/02/23 01:29:54;;;;;;;55.03;46.58;;;12.10;99.90;;;;;;2044088;28;20567;-73
2023/02/23 01:30:54;;;;;;;53.30;41.55;;;12.10;99.90;;;;;;2043833;28;20480;-73
2023/02/23 01:31:55;;;;;;;46.00;37.35;;;12.10;99.90;;;;;;2043194;28;20015;-73
2023/02/23 01:32:56;;;;;;;43.28;36.75;;;12.10;99.90;;;;;;2044016;28;20028;-73
2023/02/23 01:33:58;;;;;;;53.95;47.20;;;12.10;99.90;;;;;;2044430;28;20031;-73
2023/02/23 01:34:59;;;;;;;52.25;43.95;;;12.10;99.90;;;;;;2045302;28;20019;-73
2023/02/23 01:36:00;;;;;;;58.13;47.42;;;12.10;99.90;;;;;;2044647;28;20023;-73
2023/02/23 01:37:02;;;;;;;55.28;47.15;;;12.10;99.90;;;;;;2044879;28;20023;-73
2023/02/23 01:38:02;;;;;;;42.75;38.13;;;12.10;99.90;;;;;;2045587;29;20074;-73
2023/02/23 01:39:06;;;;;;;53.55;45.92;;;12.10;99.90;;;;;;2045345;28;20486;-73
2023/02/23 01:40:15;;;;;;;57.85;47.95;;;12.10;99.90;;;;;;2043004;28;20043;-73
2023/02/23 01:41:16;;;;;;;58.38;49.45;;;12.10;99.90;;;;;;2045442;28;20012;-73
2023/02/23 01:42:16;;;;;;;61.30;49.90;;;12.10;99.90;;;;;;2034991;29;20115;-73
2023/02/23 01:43:24;;;;;;;58.08;48.35;;;12.10;99.90;;;;;;2035855;29;20036;-73
2023/02/23 01:44:46;;;;;;;59.67;48.83;;;12.10;99.90;;;;;;2043244;28;20079;-74
2023/02/23 01:45:47;;;;;;;55.10;47.78;;;12.10;99.90;;;;;;2037327;28;20071;-73
2023/02/23 01:46:49;;;;;;;53.15;45.63;;;12.00;99.90;;;;;;2044237;28;20039;-73
2023/02/23 01:47:51;;;;;;;62.22;49.15;;;12.10;99.90;;;;;;2044272;28;20027;-73
2023/02/23 01:48:55;;;;;;;51.08;42.15;;;12.00;99.90;;;;;;2044918;29;20059;-73
2023/02/23 01:49:56;;;;;;;46.40;39.53;;;12.10;99.90;;;;;;2042761;28;20031;-73
2023/02/23 01:51:07;;;;;;;43.95;36.38;;;12.10;99.90;;;;;;2042915;28;20954;-73
2023/02/23 01:52:11;;;;;;;37.10;32.72;;;12.10;99.90;;;;;;2043947;28;20440;-73
2023/02/23 01:53:12;;;;;;;50.75;44.20;;;12.00;99.90;;;;;;2043414;28;20126;-73
2023/02/23 01:54:23;;;;;;;51.10;42.60;;;12.00;99.90;;;;;;2034295;29;20035;-73
2023/02/23 01:55:25;;;;;;;56.45;46.38;;;12.10;99.90;;;;;;2035664;29;20384;-73
2023/02/23 01:56:31;;;;;;;53.50;45.47;;;12.00;99.90;;;;;;2044522;28;20019;-73
2023/02/23 01:57:32;;;;;;;58.88;47.08;;;12.10;99.90;;;;;;2042754;28;20086;-73
2023/02/23 01:58:32;;;;;;;44.47;37.38;;;12.10;99.90;;;;;;2043142;28;20031;-73
2023/02/23 01:59:42;;;;;;;57.08;46.65;;;12.00;99.90;;;;;;2044997;28;20031;-74
2023/02/23 02:00:48;;;;;;;48.97;40.63;;;12.10;99.90;;;;;;2044336;28;20122;-73
2023/02/23 02:01:48;;;;;;;47.45;41.03;;;12.10;99.90;;;;;;2044056;28;20023;-73
2023/02/23 02:02:49;;;;;;;56.53;46.40;;;12.10;99.90;;;;;;2046031;28;20066;-73
2023/02/23 02:03:57;;;;;;;55.35;46.05;;;12.10;99.90;;;;;;2042833;28;20038;-73
2023/02/23 02:04:59;;;;;;;52.13;44.58;;;12.10;99.90;;;;;;2044807;28;20032;-73
2023/02/23 02:06:01;;;;;;;59.60;50.80;;;12.10;99.90;;;;;;2043971;28;20034;-73
2023/02/23 02:07:03;;;;;;;49.20;40.72;;;12.10;99.90;;;;;;2045801;28;20039;-73
2023/02/23 02:08:06;;;;;;;62.90;49.17;;;12.00;99.90;;;;;;2045507;28;20126;-73
2023/02/23 02:09:15;;;;;;;50.20;44.25;;;12.10;99.90;;;;;;2046599;28;20113;-73
2023/02/23 02:11:34;;;;;;;61.55;49.22;;;12.10;99.90;;;;;;2046861;28;20035;-73
2023/02/23 02:12:36;;;;;;;59.70;49.95;;;12.10;99.90;;;;;;2045732;28;20111;-73
2023/02/23 02:13:36;;;;;;;63.25;50.58;;;12.00;99.90;;;;;;2045660;28;20368;-73
2023/02/23 02:14:37;;;;;;;54.95;47.05;;;12.10;99.90;;;;;;2046652;28;20105;-73
2023/02/23 02:15:58;;;;;;;58.15;47.38;;;12.00;99.90;;;;;;2044319;28;20042;-73
2023/02/23 02:17:37;;;;;;;44.22;37.03;;;12.00;99.90;;;;;;2044881;28;20062;-73
2023/02/23 02:18:49;;;;;;;39.70;33.75;;;12.00;99.90;;;;;;2045979;28;20043;-73
2023/02/23 02:20:05;;;;;;;37.50;31.02;;;12.00;99.90;;;;;;2044042;28;20045;-73
2023/02/23 02:21:27;;;;;;;46.72;40.58;;;12.00;99.90;;;;;;2046989;28;20019;-73
2023/02/23 02:22:38;;;;;;;54.03;44.05;;;12.00;99.90;;;;;;2045503;28;20039;-73
2023/02/23 02:23:47;;;;;;;57.72;47.30;;;12.00;99.90;;;;;;2045418;28;20028;-73
2023/02/23 02:25:23;;;;;;;46.22;38.15;;;12.00;99.90;;;;;;2045543;28;20046;-73
2023/02/23 02:26:59;;;;;;;44.88;38.53;;;12.00;99.90;;;;;;2045262;28;20046;-73
2023/02/23 02:28:45;;;;;;;54.78;44.90;;;12.00;99.90;;;;;;2041033;28;20050;-73
2023/02/23 02:30:09;;;;;;;43.72;35.60;;;11.90;99.90;;;;;;2015369;29;20033;-73
2023/02/23 02:31:31;;;;;;;40.97;36.17;;;11.90;99.90;;;;;;2040014;29;20019;-73
2023/02/23 02:32:57;;;;;;;49.83;42.55;;;11.90;99.90;;;;;;2043463;28;20029;-73
2023/02/23 02:34:17;;;;;;;51.22;43.85;;;11.90;99.90;;;;;;2045842;28;20531;-73
2023/02/23 02:36:00;;;;;;;47.55;39.13;;;11.90;99.90;;;;;;2045425;28;20035;-73
2023/02/23 02:37:36;;;;;;;44.00;35.17;;;11.90;99.90;;;;;;2046105;28;20030;-73
2023/02/23 02:38:52;;;;;;;55.92;45.78;;;11.80;99.90;;;;;;2045052;28;20055;-73
2023/02/23 02:43:36;;;;;;;60.20;50.72;;;11.80;99.90;;;;;;2041504;28;20098;-73
2023/02/23 02:44:49;;;;;;;48.20;41.38;;;11.80;99.90;;;;;;2044842;28;20027;-73
2023/02/23 02:46:19;;;;;;;61.35;51.80;;;11.80;99.90;;;;;;2036647;29;20119;-73
2023/02/23 02:47:35;;;;;;;62.58;49.88;;;11.80;99.90;;;;;;2040291;29;20031;-73
2023/02/23 02:48:56;;;;;;;60.67;50.13;;;11.80;99.90;;;;;;2045408;28;20090;-74
2023/02/23 02:50:10;;;;;;;49.65;43.50;;;11.80;99.90;;;;;;2045854;28;20479;-74
2023/02/23 02:51:22;;;;;;;49.45;41.38;;;11.80;99.90;;;;;;2045949;28;20044;-73
2023/02/23 02:52:30;;;;;;;59.67;47.60;;;11.80;99.90;;;;;;2036267;29;20527;-73
2023/02/23 02:54:05;;;;;;;47.13;41.67;;;11.80;99.90;;;;;;2038133;28;20032;-74
2023/02/23 02:55:22;;;;;;;43.67;37.25;;;11.80;99.90;;;;;;2035927;29;20039;-74
2023/02/23 02:56:25;;;;;;;48.90;41.95;;;11.80;99.90;;;;;;2037352;29;20071;-74
2023/02/23 02:57:27;;;;;;;54.53;46.38;;;11.80;99.90;;;;;;2036841;29;20019;-73
2023/02/23 02:58:28;;;;;;;60.13;48.42;;;11.80;99.90;;;;;;2036285;29;20079;-74
2023/02/23 04:17:38;;;;;;;74.00;54.47;;;11.40;99.90;;;;;;2044905;28;20031;-74
2023/02/23 04:18:39;;;;;;;75.20;56.30;;;11.40;99.90;;;;;;2044727;28;20031;-74
2023/02/23 04:19:48;;;;;;;75.88;55.70;;;11.50;99.90;;;;;;2036025;29;20042;-74
2023/02/23 04:20:49;;;;;;;73.40;55.37;;;11.50;99.90;;;;;;2037654;29;20028;-74
2023/02/23 04:21:49;;;;;;;79.60;55.38;;;11.50;99.90;;;;;;2045681;28;20365;-73
2023/02/23 04:22:50;;;;;;;74.05;53.55;;;11.40;99.90;;;;;;2044523;29;20035;-74
2023/02/23 04:23:51;;;;;;;74.78;54.60;;;11.40;99.90;;;;;;2046407;28;20046;-74
2023/02/23 04:24:51;;;;;;;72.10;52.85;;;11.40;99.90;;;;;;2035888;29;20157;-74
2023/02/23 04:25:53;;;;;;;70.43;52.55;;;11.40;99.90;;;;;;2036853;29;20100;-74
2023/02/23 04:26:54;;;;;;;81.22;55.72;;;11.40;99.90;;;;;;2036130;29;20425;-74
2023/02/23 04:27:54;;;;;;;70.15;49.85;;;11.40;99.90;;;;;;2028811;29;20374;-74
2023/02/23 04:28:55;;;;;;;69.82;51.65;;;11.40;99.90;;;;;;2035693;29;20611;-73
2023/02/23 04:29:55;;;;;;;73.63;53.28;;;11.40;99.90;;;;;;2043372;28;20032;-74
2023/02/23 04:30:56;;;;;;;74.63;55.95;;;11.40;99.90;;;;;;2043731;28;20027;-74
2023/02/23 04:31:56;;;;;;;75.07;53.95;;;11.40;99.90;;;;;;2044853;29;20035;-74
2023/02/23 04:32:58;;;;;;;76.82;53.03;;;11.40;99.90;;;;;;2043877;28;20046;-74
2023/02/23 04:33:58;;;;;;;75.57;54.25;;;11.40;99.90;;;;;;2044596;28;20032;-74
2023/02/23 04:34:59;;;;;;;61.30;45.17;;;11.40;99.90;;;;;;2044133;28;20070;-74
2023/02/23 04:35:59;;;;;;;68.22;50.47;;;11.40;99.90;;;;;;2043945;28;20020;-74
2023/02/23 04:37:00;;;;;;;71.93;50.88;;;11.40;99.90;;;;;;2042994;28;20070;-74
2023/02/23 04:38:00;;;;;;;57.80;41.42;;;11.40;99.90;;;;;;2043390;28;20055;-74
2023/02/23 04:39:01;;;;;;;62.60;45.92;;;11.50;99.90;;;;;;2044792;28;20023;-74
2023/02/23 04:40:02;;;;;;;52.13;40.42;;;11.50;99.90;;;;;;2043979;28;20448;-74
2023/02/23 04:41:03;;;;;;;69.55;50.25;;;11.50;99.90;;;;;;2042179;28;20127;-74
2023/02/23 04:42:04;;;;;;;79.43;53.05;;;11.50;99.90;;;;;;2045483;28;20106;-74
2023/02/23 04:43:04;;;;;;;80.75;52.55;;;11.50;99.90;;;;;;2035494;29;20028;-74
2023/02/23 04:44:05;;;;;;;75.05;53.00;;;11.50;99.90;;;;;;2037198;29;20023;-74
2023/02/23 04:45:07;;;;;;;79.50;54.05;;;11.50;99.90;;;;;;2036572;29;20408;-74
2023/02/23 04:46:08;;;;;;;69.45;49.35;;;11.50;99.90;;;;;;2029425;29;20025;-74
2023/02/23 04:47:09;;;;;;;53.83;40.05;;;11.50;99.90;;;;;;2037609;29;20093;-74
2023/02/23 04:48:09;;;;;;;71.60;49.97;;;11.50;99.90;;;;;;2045458;28;20030;-74
2023/02/23 04:49:10;;;;;;;59.08;43.25;;;11.50;99.90;;;;;;2042925;28;20590;-74
2023/02/23 04:50:11;;;;;;;59.58;43.88;;;11.50;99.90;;;;;;2043938;28;20031;-74
2023/02/23 04:51:12;;;;;;;55.10;41.65;;;11.50;99.90;;;;;;2044269;28;20027;-74
2023/02/23 04:52:13;;;;;;;56.00;42.80;;;11.50;99.90;;;;;;2044174;28;20078;-74
2023/02/23 04:53:13;;;;;;;58.83;44.03;;;11.50;99.90;;;;;;2044297;28;20027;-74
2023/02/23 04:54:14;;;;;;;54.17;40.35;;;11.50;99.90;;;;;;2044592;28;20058;-74
2023/02/23 04:55:17;;;;;;;70.70;51.83;;;11.60;99.90;;;;;;2043770;28;20046;-74
2023/02/23 04:56:18;;;;;;;55.53;41.42;;;11.50;99.90;;;;;;2044116;28;20063;-74
2023/02/23 04:57:18;;;;;;;71.78;50.20;;;11.60;99.90;;;;;;2043677;28;20037;-74
2023/02/23 04:58:19;;;;;;;65.43;46.10;;;11.60;99.90;;;;;;2036433;29;20028;-74
2023/02/23 04:59:20;;;;;;;64.50;46.28;;;11.60;99.90;;;;;;2036013;29;20106;-74
2023/02/23 05:00:20;;;;;;;74.35;52.95;;;11.60;99.90;;;;;;2035545;29;20044;-74
2023/02/23 05:01:21;;;;;;;72.85;51.65;;;11.60;99.90;;;;;;2037742;29;20542;-74
2023/02/23 05:02:21;;;;;;;71.60;49.92;;;11.50;99.90;;;;;;2044427;28;20098;-74
2023/02/23 05:03:22;;;;;;;63.38;44.53;;;11.60;99.90;;;;;;2045663;28;20438;-74
2023/02/23 05:04:23;;;;;;;68.20;46.15;;;11.50;99.90;;;;;;2044807;28;20395;-74
2023/02/23 05:05:24;;;;;;;68.93;50.90;;;11.50;99.90;;;;;;2043865;28;20035;-74
2023/02/23 05:06:25;;;;;;;73.43;50.97;;;11.50;99.90;;;;;;2044275;28;20085;-74
2023/02/23 05:07:26;;;;;;;72.88;52.35;;;11.60;99.90;;;;;;2044576;28;20077;-74
2023/02/23 05:08:26;;;;;;;78.25;56.67;;;11.60;99.90;;;;;;2035255;29;20043;-74
2023/02/23 05:09:27;;;;;;;69.22;49.38;;;11.60;99.90;;;;;;2035784;29;20550;-74
2023/02/23 05:10:27;;;;;;;75.88;50.28;;;11.60;99.90;;;;;;2042977;29;20058;-74
2023/02/23 05:11:28;;;;;;;73.18;51.40;;;11.50;99.90;;;;;;2036538;29;20090;-74
2023/02/23 05:12:29;;;;;;;78.70;54.33;;;11.60;99.90;;;;;;2035700;29;20103;-74
2023/02/23 05:13:30;;;;;;;76.45;53.28;;;11.50;99.90;;;;;;2035480;29;20111;-74
2023/02/23 05:14:31;;;;;;;72.07;50.35;;;11.50;99.90;;;;;;2036063;29;20035;-74
2023/02/23 05:15:31;;;;;;;79.45;53.50;;;11.50;99.90;;;;;;2035795;29;20032;-74
2023/02/23 05:16:32;;;;;;;68.38;48.75;;;11.50;99.90;;;;;;2034645;29;20063;-74
2023/02/23 05:17:32;;;;;;;75.85;53.75;;;11.50;99.90;;;;;;2045475;28;20027;-74
2023/02/23 05:18:33;;;;;;;69.78;49.55;;;11.50;99.90;;;;;;2036124;29;20507;-74
2023/02/23 05:19:34;;;;;;;80.50;53.95;;;11.50;99.90;;;;;;2036461;29;20034;-74
2023/02/23 05:20:34;;;;;;;80.32;54.67;;;11.50;99.90;;;;;;2045072;28;20019;-73
2023/02/23 05:21:35;;;;;;;81.47;55.15;;;11.50;99.90;;;;;;2042814;28;20374;-73
2023/02/23 05:22:36;;;;;;;77.55;54.25;;;11.50;99.90;;;;;;2043013;29;20020;-74
2023/02/23 05:23:36;;;;;;;60.55;43.67;;;11.50;99.90;;;;;;2035972;29;20035;-74
2023/02/23 05:24:40;;;;;;;74.68;54.42;;;11.50;99.90;;;;;;2029778;29;20098;-74
2023/02/23 05:25:41;;;;;;;68.07;47.65;;;11.50;99.90;;;;;;2036400;29;20031;-74
2023/02/23 05:26:42;;;;;;;60.88;44.05;;;11.50;99.90;;;;;;2036901;29;20146;-74
2023/02/23 05:27:43;;;;;;;66.03;46.10;;;11.50;99.90;;;;;;2044042;28;20046;-74
2023/02/23 05:28:44;;;;;;;68.35;49.08;;;11.50;99.90;;;;;;2044924;28;20034;-74
2023/02/23 05:29:44;;;;;;;73.85;50.10;;;11.50;99.90;;;;;;2044946;28;20034;-74
2023/02/23 05:30:45;;;;;;;76.00;53.30;;;11.50;99.90;;;;;;2046143;28;20066;-74
2023/02/23 05:31:47;;;;;;;72.30;51.83;;;11.50;99.90;;;;;;2043726;28;20523;-74
2023/02/23 05:32:48;;;;;;;67.30;47.70;;;11.50;99.90;;;;;;2044512;29;20025;-74
2023/02/23 05:33:48;;;;;;;73.32;52.92;;;11.50;99.90;;;;;;2043817;28;20035;-74
2023/02/23 05:34:49;;;;;;;63.88;45.42;;;11.50;99.90;;;;;;2034304;29;20720;-74
2023/02/23 05:35:49;;;;;;;70.30;49.60;;;11.50;99.90;;;;;;2034438;29;21382;-74
2023/02/23 05:36:50;;;;;;;61.88;44.08;;;11.50;99.90;;;;;;2044914;28;20107;-74
2023/02/23 05:37:51;;;;;;;71.60;50.70;;;11.50;99.90;;;;;;2043553;28;20050;-74
2023/02/23 05:38:51;;;;;;;72.07;49.50;;;11.50;99.90;;;;;;2044412;28;20020;-74
2023/02/23 05:39:52;;;;;;;72.55;52.90;;;11.50;99.90;;;;;;2044401;28;20410;-74
2023/02/23 05:40:52;;;;;;;72.75;49.28;;;11.50;99.90;;;;;;2044843;28;20034;-74
2023/02/23 05:41:53;;;;;;;68.22;48.22;;;11.50;99.90;;;;;;2046036;28;20118;-74
2023/02/23 05:42:58;;;;;;;69.47;48.10;;;11.50;99.90;;;;;;2035649;29;20032;-74
2023/02/23 05:43:58;;;;;;;73.82;51.55;;;11.50;99.90;;;;;;2037771;29;20023;-74
2023/02/23 05:44:59;;;;;;;72.78;51.45;;;11.50;99.90;;;;;;2036810;29;20110;-74
2023/02/23 05:46:00;;;;;;;59.53;43.08;;;11.50;99.90;;;;;;2036347;29;21501;-74
2023/02/23 05:47:00;;;;;;;62.50;45.00;;;11.50;99.90;;;;;;2045453;28;20387;-74
2023/02/23 05:48:01;;;;;;;65.45;48.33;;;11.50;99.90;;;;;;2046269;28;20019;-74
2023/02/23 05:49:02;;;;;;;69.47;50.90;;;11.50;99.90;;;;;;2045789;28;20068;-74
2023/02/23 05:50:05;;;;;;;61.67;44.83;;;11.50;99.90;;;;;;2044915;28;20027;-73
2023/02/23 05:51:11;;;;;;;74.40;51.97;;;11.50;99.90;;;;;;2044651;28;20055;-73
2023/02/23 05:52:11;;;;;;;70.97;48.47;;;11.50;99.90;;;;;;2044642;28;20047;-74
2023/02/23 05:53:12;;;;;;;61.97;43.75;;;11.50;99.90;;;;;;2046150;28;20019;-73
2023/02/23 05:54:13;;;;;;;69.55;49.97;;;11.50;99.90;;;;;;2044981;28;20031;-74
2023/02/23 05:55:14;;;;;;;75.68;53.45;;;11.50;99.90;;;;;;2044243;28;20079;-74
2023/02/23 05:56:19;;;;;;;78.78;51.92;;;11.50;99.90;;;;;;2043971;28;20023;-74
2023/02/23 05:57:19;;;;;;;73.07;51.13;;;11.50;99.90;;;;;;2043580;28;20059;-74
2023/02/23 05:58:20;;;;;;;62.10;44.63;;;11.50;99.90;;;;;;2046291;28;20046;-74
2023/02/23 05:59:20;;;;;;;65.82;46.22;;;11.50;99.90;;;;;;2040745;29;20047;-74
2023/02/23 06:00:21;;;;;;;73.35;50.75;;;11.50;99.90;;;;;;2038985;29;20558;-74
2023/02/23 06:01:22;;;;;;;74.65;52.72;;;11.50;99.90;;;;;;2047233;28;20681;-74
2023/02/23 06:02:23;;;;;;;79.82;52.83;;;11.50;99.90;;;;;;2043724;28;20035;-74
2023/02/23 06:03:24;;;;;;;61.78;43.47;;;11.50;99.90;;;;;;2045682;28;20110;-73
2023/02/23 06:04:24;;;;;;;76.45;52.67;;;11.50;99.90;;;;;;2045453;28;20487;-74
2023/02/23 06:05:25;;;;;;;64.82;44.55;;;11.50;99.90;;;;;;2045460;28;20106;-74
2023/02/23 06:06:27;;;;;;;64.93;48.17;;;11.50;99.90;;;;;;2045788;28;20051;-74
2023/02/23 06:07:27;;;;;;;63.97;45.88;;;11.50;99.90;;;;;;2035879;29;20546;-74
2023/02/23 06:08:28;;;;;;;63.17;43.58;;;11.40;99.90;;;;;;2035790;29;20039;-74
2023/02/23 06:09:28;;;;;;;60.08;44.03;;;11.50;99.90;;;;;;2044799;28;20016;-74
2023/02/23 06:10:29;;;;;;;71.00;52.13;;;11.50;99.90;;;;;;2038196;29;20030;-74
2023/02/23 06:11:30;;;;;;;60.28;42.05;;;11.50;99.90;;;;;;2037542;29;20043;-74
2023/02/23 06:12:30;;;;;;;67.75;47.38;;;11.50;99.90;;;;;;2044494;28;20057;-74
2023/02/23 06:13:31;;;;;;;58.92;42.08;;;11.50;99.90;;;;;;2044720;28;20114;-74
2023/02/23 06:14:32;;;;;;;63.88;45.83;;;11.40;99.90;;;;;;2045296;28;20179;-74
2023/02/23 06:15:32;;;;;;;69.47;46.83;;;11.50;99.90;;;;;;2045369;28;20034;-74
2023/02/23 06:16:33;;;;;;;77.50;53.30;;;11.50;99.90;;;;;;2044200;28;20027;-74
2023/02/23 06:17:34;;;;;;;81.32;57.00;;;11.50;99.90;;;;;;2043507;28;20063;-74
2023/02/23 06:18:35;;;;;;;70.07;50.55;;;11.50;99.90;;;;;;2044581;28;20040;-74
2023/02/23 06:19:35;;;;;;;74.38;52.05;;;11.50;99.90;;;;;;2044940;29;20039;-74
2023/02/23 06:20:37;;;;;;;77.63;55.88;;;11.40;99.90;;;;;;2036127;29;20032;-74
2023/02/23 06:21:37;;;;;;;75.60;54.72;;;11.50;99.90;;;;;;2038337;29;20024;-74
2023/02/23 06:22:38;;;;;;;67.50;49.20;;;11.50;99.90;;;;;;2046227;28;20043;-74
2023/02/23 06:23:38;;;;;;;59.47;42.75;;;11.50;99.90;;;;;;2045211;28;20033;-74
2023/02/23 06:24:39;;;;;;;68.88;47.97;;;11.40;99.90;;;;;;2046868;28;20086;-74
2023/02/23 06:25:40;;;;;;;74.05;50.75;;;11.50;99.90;;;;;;2036193;29;20070;-74
2023/02/23 06:26:41;;;;;;;84.13;56.47;;;11.40;99.90;;;;;;2036402;29;20020;-74
2023/02/23 06:27:44;;;;;;;76.45;50.90;;;11.50;99.90;;;;;;2046554;28;20023;-74
2023/02/23 06:28:44;;;;;;;75.63;51.92;;;11.40;99.90;;;;;;2044166;28;20398;-74
2023/02/23 06:29:45;;;;;;;79.70;55.25;;;11.40;99.90;;;;;;2038240;29;20032;-74
2023/02/23 06:30:47;;;;;;;71.90;50.63;;;11.40;99.90;;;;;;2036569;29;20044;-74
2023/02/23 06:31:47;;;;;;;75.78;53.67;;;11.40;99.90;;;;;;2038396;29;20507;-74
2023/02/23 06:32:48;;;;;;;68.47;46.72;;;11.40;99.90;;;;;;2045160;28;20027;-74
2023/02/23 06:33:49;;;;;;;67.60;47.20;;;11.40;99.90;;;;;;2045073;28;20031;-74
2023/02/23 06:34:50;;;;;;;79.47;54.67;;;11.40;99.90;;;;;;2036535;29;20040;-74
2023/02/23 06:35:51;;;;;;;89.82;61.17;;;11.40;99.90;;;;;;2036136;29;20555;-74
2023/02/23 06:36:52;;;;;;;81.97;56.83;;;11.40;99.90;;;;;;2043096;28;20567;-74
2023/02/23 06:37:52;;;;;;;75.28;53.08;;;11.40;99.90;;;;;;2035394;29;20480;-74
2023/02/23 06:38:57;;;;;;;62.83;45.70;;;11.40;99.90;;;;;;2035578;29;20032;-74
2023/02/23 06:39:57;;;;;;;84.68;59.35;;;11.40;99.90;;;;;;2044439;28;20035;-74
2023/02/23 06:40:58;;;;;;;80.65;57.30;;;11.40;99.90;;;;;;2045054;28;20055;-74
2023/02/23 06:41:59;;;;;;;89.72;62.45;;;11.40;99.90;;;;;;2043680;28;20106;-74
2023/02/23 06:43:02;;;;;;;83.32;58.50;;;11.40;99.90;;;;;;2035870;29;20035;-74
2023/02/23 06:44:03;;;;;;;88.32;62.28;;;11.40;99.90;;;;;;2036989;29;20412;-74
2023/02/23 06:45:04;;;;;;;83.78;55.92;;;11.40;99.90;;;;;;2045238;28;20047;-74